.
WxDataArchive / Data Records for 2007-11-29
2007-11-28 November 2007 2007-11-30

Data Records for Thursday, 29 November 2007

Time	Temp	Chill	HIndex	Humid	Dewpt	 Wind 	HiWind	WindDir	Rain 	Barom 
-----	----	-----	------	-----	-----	------	------	-------	-----	----- 
00:00	46.0	46.0	46.0	57	31.6	3	10	248	0.00	29.841 
00:05	45.8	44.0	45.8	57	31.4	4	6	248	0.00	29.844 
00:10	45.8	45.8	45.8	58	31.9	3	9	270	0.00	29.837 
00:15	45.8	44.0	45.8	58	31.9	4	11	248	0.00	29.840 
00:20	45.8	44.0	45.8	58	31.9	4	11	248	0.00	29.837 
00:25	45.8	43.3	45.8	58	31.9	5	14	248	0.00	29.838 
00:30	45.8	44.0	45.8	59	32.3	4	10	270	0.00	29.839 
00:35	45.8	43.3	45.8	60	32.7	5	11	270	0.00	29.843 
00:40	45.8	43.3	45.8	61	33.1	5	13	270	0.00	29.850 
00:45	45.8	43.3	45.8	62	33.5	5	15	270	0.00	29.848 
00:50	45.7	43.9	45.7	64	34.2	4	16	270	0.00	29.852 
00:55	45.5	43.7	45.5	65	34.4	4	12	270	0.00	29.854 
01:00	45.4	45.4	45.4	68	35.5	3	9	248	0.00	29.859 
01:05	45.2	43.3	45.2	71	36.4	4	10	270	0.00	29.854 
01:10	45.1	42.5	45.1	73	37.0	5	13	270	0.00	29.860 
01:15	44.8	42.1	44.8	75	37.4	5	14	270	0.00	29.866 
01:20	44.6	41.9	44.6	77	37.8	5	12	270	0.00	29.865 
01:25	44.5	41.8	44.5	77	37.7	5	15	270	0.00	29.864 
01:30	44.3	41.5	44.3	77	37.6	5	16	270	0.00	29.867 
01:35	44.3	42.3	44.3	78	37.9	4	12	270	0.00	29.868 
01:40	44.2	40.8	44.2	78	37.8	6	16	270	0.00	29.871 
01:45	44.1	41.3	44.1	79	38.0	5	11	270	0.00	29.878 
01:50	43.5	40.6	43.5	75	36.1	5	10	270	0.00	29.883 
01:55	42.8	39.8	42.8	74	35.1	5	12	270	0.00	29.887 
02:00	42.2	38.4	42.2	75	34.9	6	18	270	0.00	29.888 
02:05	41.5	39.1	41.5	72	33.2	4	12	270	0.00	29.893 
02:10	40.8	36.7	40.8	68	31.1	6	14	270	0.00	29.896 
02:15	40.2	36.7	40.2	65	29.4	5	13	270	0.00	29.904 
02:20	39.6	36.0	39.6	64	28.4	5	12	270	0.00	29.908 
02:25	39.1	35.4	39.1	65	28.3	5	13	270	0.00	29.917 
02:30	38.3	33.7	38.3	67	28.3	6	19	270	0.00	29.916 
02:35	37.8	34.8	37.8	69	28.6	4	9	270	0.00	29.923 
02:40	37.2	33.2	37.2	70	28.3	5	13	270	0.00	29.931 
02:45	36.5	32.4	36.5	70	27.7	5	11	270	0.00	29.932 
02:50	36.0	32.7	36.0	69	26.8	4	9	270	0.00	29.938 
02:55	35.5	31.2	35.5	69	26.4	5	11	270	0.00	29.939 
03:00	34.9	30.5	34.9	68	25.4	5	15	270	0.00	29.941 
03:05	34.1	29.5	34.1	68	24.7	5	12	270	0.00	29.944 
03:10	33.7	29.1	33.7	68	24.3	5	10	270	0.00	29.949 
03:15	33.4	29.7	33.4	69	24.3	4	14	270	0.00	29.952 
03:20	33.1	33.1	33.1	70	24.4	3	10	270	0.00	29.952 
03:25	32.8	29.0	32.8	69	23.8	4	12	270	0.00	29.954 
03:30	32.4	28.5	32.4	70	23.7	4	12	270	0.00	29.953 
03:35	32.1	28.2	32.1	69	23.1	4	11	248	0.00	29.960 
03:40	31.8	27.8	31.8	68	22.5	4	12	270	0.00	29.964 
03:45	31.5	27.5	31.5	68	22.2	4	9	270	0.00	29.967 
03:50	31.2	27.2	31.2	68	21.9	4	12	270	0.00	29.968 
03:55	30.9	25.8	30.9	67	21.3	5	11	270	0.00	29.965 
04:00	30.6	25.4	30.6	66	20.6	5	14	270	0.00	29.964 
04:05	30.3	26.1	30.3	64	19.6	4	12	270	0.00	29.964 
04:10	30.1	24.8	30.1	63	19.0	5	12	270	0.00	29.964 
04:15	30.0	30.0	30.0	64	19.3	3	7	270	0.00	29.967 
04:20	29.8	25.5	29.8	66	19.8	4	12	270	0.00	29.973 
04:25	29.7	25.4	29.7	67	20.1	4	7	270	0.00	29.973 
04:30	29.5	25.2	29.5	65	19.2	4	7	270	0.00	29.974 
04:35	29.4	24.0	29.4	64	18.8	5	13	270	0.00	29.974 
04:40	29.3	25.0	29.3	63	18.3	4	13	270	0.00	29.977 
04:45	29.1	24.7	29.1	62	17.7	4	11	270	0.00	29.975 
04:50	29.0	24.6	29.0	63	18.0	4	11	270	0.00	29.976 
04:55	28.8	24.4	28.8	64	18.2	4	13	270	0.00	29.978 
05:00	28.7	28.7	28.7	64	18.1	3	8	270	0.00	29.982 
05:05	28.5	23.0	28.5	64	17.9	5	14	270	0.00	29.991 
05:10	28.4	28.4	28.4	63	17.4	3	12	270	0.00	29.992 
05:15	28.4	23.9	28.4	62	17.1	4	9	270	0.00	29.992 
05:20	28.2	23.7	28.2	62	16.9	4	15	270	0.00	30.002 
05:25	28.2	28.2	28.2	63	17.2	3	8	270	0.00	30.006 
05:30	28.1	23.6	28.1	63	17.2	4	12	270	0.00	30.003 
05:35	27.9	22.3	27.9	64	17.3	5	10	270	0.00	30.003 
05:40	27.9	23.3	27.9	65	17.7	4	12	270	0.00	30.007 
05:45	27.8	23.2	27.8	65	17.6	4	9	270	0.00	30.011 
05:50	27.6	23.0	27.6	66	17.8	4	12	270	0.00	30.013 
05:55	27.6	27.6	27.6	66	17.8	3	13	270	0.00	30.017 
06:00	27.5	27.5	27.5	66	17.7	3	11	270	0.00	30.017 
06:05	27.3	21.6	27.3	65	17.1	5	14	270	0.00	30.024 
06:10	27.0	27.0	27.0	64	16.5	3	7	270	0.00	30.024 
06:15	26.9	22.2	26.9	62	15.6	4	12	270	0.00	30.026 
06:20	26.7	20.9	26.7	60	14.7	5	18	270	0.00	30.035 
06:25	26.6	21.8	26.6	60	14.6	4	13	270	0.00	30.039 
06:30	26.4	19.6	26.4	60	14.4	6	11	270	0.00	30.042 
06:35	26.4	19.6	26.4	60	14.4	6	17	270	0.00	30.045 
06:40	26.3	26.3	26.3	61	14.7	3	9	270	0.00	30.051 
06:45	26.1	20.1	26.1	60	14.1	5	11	270	0.00	30.055 
06:50	25.8	18.8	25.8	59	13.5	6	16	270	0.00	30.058 
06:55	25.7	18.7	25.7	58	13.0	6	13	270	0.00	30.063 
07:00	25.6	18.6	25.6	57	12.5	6	17	270	0.00	30.065 
07:05	25.4	19.3	25.4	56	11.9	5	12	270	0.00	30.070 
07:10	25.3	20.3	25.3	57	12.2	4	10	270	0.00	30.069 
07:15	25.1	25.1	25.1	58	12.4	3	9	270	0.00	30.069 
07:20	25.0	25.0	25.0	59	12.7	3	8	270	0.00	30.071 
07:25	24.8	19.8	24.8	58	12.1	4	7	270	0.00	30.072 
07:30	24.8	19.8	24.8	57	11.8	4	9	270	0.00	30.074 
07:35	24.7	18.5	24.7	57	11.7	5	11	270	0.00	30.077 
07:40	24.5	24.5	24.5	58	11.9	3	7	270	0.00	30.080 
07:45	24.4	24.4	24.4	60	12.5	3	11	292	0.00	30.087 
07:50	24.2	24.2	24.2	61	12.7	3	7	270	0.00	30.091 
07:55	24.1	24.1	24.1	61	12.6	3	9	270	0.00	30.093 
08:00	23.9	23.9	23.9	61	12.4	3	6	270	0.00	30.100 
08:05	23.9	23.9	23.9	61	12.4	3	6	270	0.00	30.097 
08:10	23.9	18.7	23.9	60	12.1	4	12	270	0.00	30.104 
08:15	23.9	18.7	23.9	60	12.1	4	10	270	0.00	30.104 
08:20	23.9	18.7	23.9	59	11.7	4	9	270	0.00	30.105 
08:25	23.9	23.9	23.9	59	11.7	3	10	270	0.00	30.115 
08:30	23.9	23.9	23.9	59	11.7	3	6	270	0.00	30.119 
08:35	23.9	18.7	23.9	58	11.3	4	13	270	0.00	30.120 
08:40	24.1	24.1	24.1	58	11.5	2	11	270	0.00	30.126 
08:45	23.9	18.7	23.9	57	10.9	4	11	270	0.00	30.134 
08:50	24.1	19.0	24.1	57	11.1	4	10	270	0.00	30.135 
08:55	24.1	16.8	24.1	56	10.7	6	13	270	0.00	30.136 
09:00	24.1	19.0	24.1	57	11.1	4	14	270	0.00	30.136 
09:05	24.2	19.1	24.2	56	10.8	4	12	270	0.00	30.139 
09:10	24.4	19.3	24.4	55	10.6	4	10	270	0.00	30.141 
09:15	24.4	18.1	24.4	55	10.6	5	11	270	0.00	30.144 
09:20	24.5	19.4	24.5	54	10.3	4	12	270	0.00	30.145 
09:25	24.5	18.3	24.5	53	9.8	5	14	270	0.00	30.148 
09:30	24.4	19.3	24.4	54	10.2	4	8	270	0.00	30.150 
09:35	24.7	19.6	24.7	54	10.5	4	9	270	0.00	30.150 
09:40	24.8	24.8	24.8	54	10.5	3	12	270	0.00	30.151 
09:45	24.7	18.5	24.7	53	10.0	5	15	270	0.00	30.154 
09:50	24.7	19.6	24.7	53	10.0	4	15	270	0.00	30.156 
09:55	25.1	25.1	25.1	54	10.8	2	7	270	0.00	30.157 
10:00	25.1	20.1	25.1	52	10.0	4	7	270	0.00	30.159 
10:05	25.3	25.3	25.3	53	10.6	3	9	270	0.00	30.163 
10:10	25.6	25.6	25.6	52	10.4	2	6	248	0.00	30.157 
10:15	25.6	25.6	25.6	51	10.0	3	10	270	0.00	30.157 
10:20	25.6	25.6	25.6	50	9.6	3	8	270	0.00	30.156 
10:25	25.6	25.6	25.6	51	10.0	3	11	270	0.00	30.157 
10:30	26.0	26.0	26.0	51	10.4	3	7	270	0.00	30.153 
10:35	25.8	20.9	25.8	50	9.8	4	11	270	0.00	30.159 
10:40	26.0	26.0	26.0	50	9.9	3	7	270	0.00	30.163 
10:45	26.1	21.3	26.1	50	10.0	4	9	270	0.00	30.165 
10:50	26.1	21.3	26.1	50	10.0	4	14	270	0.00	30.171 
10:55	26.4	21.6	26.4	49	9.9	4	7	270	0.00	30.177 
11:00	26.6	21.8	26.6	48	9.6	4	13	270	0.00	30.179 
11:05	26.6	21.8	26.6	48	9.6	4	7	270	0.00	30.179 
11:10	26.7	22.0	26.7	48	9.7	4	12	270	0.00	30.178 
11:15	26.9	26.9	26.9	48	9.9	3	10	270	0.00	30.179 
11:20	27.0	22.3	27.0	46	9.0	4	9	270	0.00	30.180 
11:25	27.2	27.2	27.2	46	9.2	3	7	270	0.00	30.177 
11:30	27.3	27.3	27.3	46	9.3	3	8	292	0.00	30.173 
11:35	27.6	27.6	27.6	47	10.0	3	6	270	0.00	30.176 
11:40	28.1	28.1	28.1	46	10.0	3	9	270	0.00	30.176 
11:45	27.8	23.2	27.8	47	10.2	4	13	270	0.00	30.178 
11:50	27.8	23.2	27.8	44	8.8	4	10	270	0.00	30.179 
11:55	27.8	27.8	27.8	45	9.3	3	9	270	0.00	30.178 
12:00	28.2	28.2	28.2	46	10.1	3	9	270	0.00	30.178 
12:05	28.4	23.9	28.4	44	9.3	4	12	270	0.00	30.180 
12:10	28.7	28.7	28.7	45	10.1	3	10	270	0.00	30.178 
12:15	28.8	24.4	28.8	44	9.7	4	11	270	0.00	30.173 
12:20	29.0	24.6	29.0	45	10.4	4	13	270	0.00	30.177 
12:25	29.0	24.6	29.0	43	9.3	4	10	270	0.00	30.173 
12:30	29.3	29.3	29.3	44	10.1	3	10	270	0.00	30.168 
12:35	29.7	25.4	29.7	43	10.0	4	14	270	0.00	30.166 
12:40	29.8	29.8	29.8	43	10.1	2	5	270	0.00	30.164 
12:45	29.8	25.5	29.8	42	9.5	4	12	270	0.00	30.163 
12:50	30.0	25.8	30.0	42	9.7	4	13	270	0.00	30.162 
12:55	30.3	30.3	30.3	42	10.0	3	7	270	0.00	30.162 
13:00	30.3	30.3	30.3	40	8.9	3	6	270	0.00	30.162 
13:05	30.7	30.7	30.7	41	9.8	3	10	270	0.00	30.163 
13:10	30.7	30.7	30.7	39	8.7	3	7	270	0.00	30.166 
13:15	30.9	30.9	30.9	39	8.9	3	7	292	0.00	30.165 
13:20	31.0	31.0	31.0	40	9.5	3	7	270	0.00	30.165 
13:25	31.0	26.9	31.0	39	9.0	4	9	270	0.00	30.166 
13:30	31.2	31.2	31.2	38	8.6	3	6	270	0.00	30.166 
13:35	31.5	31.5	31.5	41	10.5	2	4	270	0.00	30.167 
13:40	31.8	27.8	31.8	39	9.7	4	10	270	0.00	30.166 
13:45	31.8	31.8	31.8	38	9.1	3	6	270	0.00	30.171 
13:50	31.9	28.0	31.9	37	8.6	4	9	270	0.00	30.176 
13:55	32.1	32.1	32.1	38	9.4	3	7	270	0.00	30.177 
14:00	32.1	28.2	32.1	36	8.2	4	12	270	0.00	30.177 
14:05	32.2	28.3	32.2	34	7.0	4	7	270	0.00	30.186 
14:10	32.2	28.3	32.2	34	7.0	4	9	270	0.00	30.188 
14:15	32.4	32.4	32.4	37	9.1	3	9	270	0.00	30.189 
14:20	32.7	32.7	32.7	35	8.1	3	9	270	0.00	30.189 
14:25	32.5	28.7	32.5	32	6.0	4	11	270	0.00	30.188 
14:30	32.8	32.8	32.8	35	8.2	3	7	270	0.00	30.187 
14:35	32.8	29.0	32.8	36	8.8	4	17	248	0.00	30.190 
14:40	32.9	29.1	32.9	35	8.3	4	10	270	0.00	30.190 
14:45	32.9	32.9	32.9	34	7.6	3	9	270	0.00	30.194 
14:50	33.1	33.1	33.1	35	8.5	3	14	270	0.00	30.198 
14:55	33.2	33.2	33.2	35	8.5	3	8	270	0.00	30.201 
15:00	33.4	33.4	33.4	36	9.4	2	10	270	0.00	30.201 
15:05	33.5	33.5	33.5	37	10.0	3	10	270	0.00	30.203 
15:10	33.4	28.7	33.4	36	9.4	5	13	270	0.00	30.205 
15:15	33.4	29.7	33.4	36	9.4	4	13	270	0.00	30.203 
15:20	33.5	28.8	33.5	38	10.6	5	11	270	0.00	30.203 
15:25	33.5	29.8	33.5	37	10.0	4	11	270	0.00	30.203 
15:30	33.7	33.7	33.7	37	10.2	3	10	270	0.00	30.206 
15:35	33.5	29.8	33.5	39	11.2	4	10	270	0.00	30.208 
15:40	33.5	29.8	33.5	39	11.2	4	10	270	0.00	30.215 
15:45	33.4	29.7	33.4	39	11.1	4	9	270	0.00	30.215 
15:50	33.1	29.3	33.1	39	10.9	4	9	270	0.00	30.214 
15:55	32.9	32.9	32.9	39	10.7	3	6	270	0.00	30.212 
16:00	33.1	33.1	33.1	38	10.3	3	8	270	0.00	30.212 
16:05	33.1	33.1	33.1	39	10.9	3	10	248	0.00	30.213 
16:10	32.9	29.1	32.9	41	11.8	4	14	270	0.00	30.221 
16:15	32.7	28.9	32.7	42	12.2	4	12	270	0.00	30.221 
16:20	32.2	32.2	32.2	43	12.2	3	7	270	0.00	30.223 
16:25	31.9	28.0	31.9	43	12.0	4	9	270	0.00	30.224 
16:30	31.8	31.8	31.8	45	12.9	3	10	270	0.00	30.223 
16:35	31.6	31.6	31.6	46	13.2	3	10	248	0.00	30.224 
16:40	31.3	31.3	31.3	49	14.4	3	12	248	0.00	30.222 
16:45	31.2	31.2	31.2	50	14.8	3	9	270	0.00	30.220 
16:50	30.9	30.9	30.9	50	14.5	2	11	270	0.00	30.222 
16:55	30.7	30.7	30.7	50	14.3	3	9	248	0.00	30.221 
17:00	30.6	30.6	30.6	51	14.6	2	8	270	0.00	30.223 
17:05	30.6	30.6	30.6	51	14.6	3	6	248	0.00	30.226 
17:10	30.4	30.4	30.4	52	14.9	3	9	270	0.00	30.225 
17:15	30.3	30.3	30.3	52	14.8	1	5	248	0.00	30.227 
17:20	30.1	30.1	30.1	53	15.1	3	6	248	0.00	30.231 
17:25	30.1	30.1	30.1	54	15.5	2	6	248	0.00	30.234 
17:30	29.8	29.8	29.8	54	15.2	2	7	248	0.00	30.235 
17:35	29.8	29.8	29.8	55	15.6	2	5	248	0.00	30.236 
17:40	29.7	29.7	29.7	55	15.5	2	6	248	0.00	30.237 
17:45	29.5	29.5	29.5	55	15.3	2	10	270	0.00	30.240 
17:50	29.5	29.5	29.5	55	15.3	1	6	248	0.00	30.242 
17:55	29.4	29.4	29.4	55	15.3	1	5	248	0.00	30.243 
18:00	29.3	29.3	29.3	56	15.6	1	3	248	0.00	30.251 
18:05	29.1	29.1	29.1	57	15.8	1	4	248	0.00	30.256 
18:10	29.1	29.1	29.1	57	15.8	1	5	248	0.00	30.259 
18:15	29.1	29.1	29.1	57	15.8	1	4	248	0.00	30.260 
18:20	29.1	29.1	29.1	57	15.8	2	6	248	0.00	30.261 
18:25	29.1	29.1	29.1	58	16.2	2	7	248	0.00	30.259 
18:30	29.1	29.1	29.1	58	16.2	1	7	248	0.00	30.260 
18:35	29.1	29.1	29.1	58	16.2	2	5	248	0.00	30.261 
18:40	29.1	29.1	29.1	58	16.2	3	9	248	0.00	30.270 
18:45	29.0	29.0	29.0	59	16.5	2	5	248	0.00	30.274 
18:50	29.0	29.0	29.0	59	16.5	2	7	248	0.00	30.274 
18:55	29.0	29.0	29.0	59	16.5	3	6	248	0.00	30.276 
19:00	29.0	29.0	29.0	60	16.9	1	4	248	0.00	30.276 
19:05	29.0	29.0	29.0	60	16.9	2	7	248	0.00	30.277 
19:10	28.8	28.8	28.8	60	16.7	1	6	248	0.00	30.278 
19:15	28.8	28.8	28.8	61	17.1	2	7	248	0.00	30.278 
19:20	28.7	28.7	28.7	61	17.0	1	4	248	0.00	30.280 
19:25	28.7	28.7	28.7	61	17.0	2	5	248	0.00	30.281 
19:30	28.7	28.7	28.7	58	15.8	2	7	248	0.00	30.284 
19:35	28.7	28.7	28.7	61	17.0	1	6	248	0.00	30.290 
19:40	28.7	28.7	28.7	62	17.4	1	3	248	0.00	30.289 
19:45	28.5	28.5	28.5	62	17.2	2	6	248	0.00	30.290 
19:50	28.5	28.5	28.5	62	17.2	1	5	248	0.00	30.285 
19:55	28.5	28.5	28.5	62	17.2	1	4	248	0.00	30.279 
20:00	28.4	28.4	28.4	62	17.1	1	4	248	0.00	30.278 
20:05	28.4	28.4	28.4	62	17.1	1	4	248	0.00	30.278 
20:10	28.2	28.2	28.2	63	17.2	1	6	248	0.00	30.278 
20:15	28.4	28.4	28.4	63	17.4	2	7	248	0.00	30.279 
20:20	28.7	28.7	28.7	64	18.1	1	5	248	0.00	30.278 
20:25	28.8	28.8	28.8	64	18.2	1	6	248	0.00	30.278 
20:30	29.0	29.0	29.0	64	18.4	1	4	248	0.00	30.277 
20:35	29.1	29.1	29.1	64	18.5	1	5	248	0.00	30.275 
20:40	29.3	29.3	29.3	64	18.7	2	8	248	0.00	30.274 
20:45	29.4	29.4	29.4	64	18.8	1	6	248	0.00	30.271 
20:50	29.5	29.5	29.5	63	18.5	1	4	248	0.00	30.273 
20:55	29.7	29.7	29.7	63	18.7	1	5	248	0.00	30.273 
21:00	29.8	29.8	29.8	63	18.8	1	6	248	0.00	30.273 
21:05	30.0	30.0	30.0	63	19.0	3	7	248	0.00	30.274 
21:10	30.1	30.1	30.1	62	18.7	1	5	248	0.00	30.275 
21:15	30.1	30.1	30.1	63	19.0	1	6	248	0.00	30.273 
21:20	30.1	30.1	30.1	63	19.0	1	4	248	0.00	30.275 
21:25	30.1	30.1	30.1	63	19.0	3	6	248	0.00	30.270 
21:30	30.1	30.1	30.1	63	19.0	2	6	248	0.00	30.273 
21:35	30.1	30.1	30.1	63	19.0	2	8	248	0.00	30.274 
21:40	30.0	30.0	30.0	64	19.3	2	5	248	0.00	30.273 
21:45	29.8	29.8	29.8	64	19.1	1	4	248	0.00	30.275 
21:50	29.5	29.5	29.5	65	19.2	1	5	248	0.00	30.274 
21:55	29.5	29.5	29.5	65	19.2	1	4	248	0.00	30.275 
22:00	29.4	29.4	29.4	66	19.5	1	5	248	0.00	30.276 
22:05	29.4	29.4	29.4	66	19.5	1	4	248	0.00	30.274 
22:10	29.4	29.4	29.4	66	19.5	1	4	248	0.00	30.274 
22:15	29.4	29.4	29.4	66	19.5	1	4	248	0.00	30.275 
22:20	29.3	29.3	29.3	67	19.7	1	4	225	0.00	30.275 
22:25	29.1	29.1	29.1	67	19.5	1	3	248	0.00	30.275 
22:30	29.1	29.1	29.1	67	19.5	1	3	248	0.00	30.272 
22:35	29.1	29.1	29.1	68	19.9	1	3	248	0.00	30.272 
22:40	29.1	29.1	29.1	68	19.9	1	4	248	0.00	30.269 
22:45	29.0	29.0	29.0	68	19.8	0	2	248	0.00	30.268 
22:50	28.8	28.8	28.8	69	19.9	0	1	248	0.00	30.268 
22:55	28.8	28.8	28.8	69	19.9	0	3	248	0.00	30.268 
23:00	28.8	28.8	28.8	69	19.9	1	3	248	0.00	30.270 
23:05	28.8	28.8	28.8	70	20.3	0	3	248	0.00	30.270 
23:10	28.7	28.7	28.7	70	20.2	0	1	248	0.00	30.265 
23:15	28.7	28.7	28.7	70	20.2	1	3	248	0.00	30.267 
23:20	28.5	28.5	28.5	70	20.0	1	3	248	0.00	30.266 
23:25	28.5	28.5	28.5	71	20.3	1	5	248	0.00	30.265 
23:30	28.5	28.5	28.5	71	20.3	0	4	248	0.00	30.264 
23:35	28.5	28.5	28.5	71	20.3	0	3	248	0.00	30.265 
23:40	28.4	28.4	28.4	71	20.2	0	3	248	0.00	30.266 
23:45	28.4	28.4	28.4	71	20.2	0	2	248	0.00	30.264 
23:50	28.2	28.2	28.2	71	20.0	0	2	248	0.00	30.263 
23:55	28.4	28.4	28.4	71	20.2	1	3	248	0.00	30.263 

CoCoRaHS
IN-AL-39
A2 Web Hosting
Creative Commons License
GoDaddy
Look for:

loaded 2017-12-13 02:33:01 • last modified 2010-11-18 10:43:29
Privacy PolicyDisclaimer
• wx.awcolley.com is powered by PmWiki v.2002016 •
• all content (unless otherwise noted) © 2017 A W Colley